Time;durP1;ratioP1;P1;durP2;ratioP2;P2;SDS_P1;SDS_P2;PMS_P1;PMS_P2;Temp;Humidity;BMP_temperature;BMP_pressure;BME280_temperature;BME280_humidity;BME280_pressure;Samples;Min_cycle;Max_cycle;Signal;HPM_P1;HPM_P2
2023/05/11 00:00:03;;;;;;;10.40;6.80;;;;;;;-143.84;86.68;44542.59;5074017;28;20536;-77
2023/05/11 00:02:30;;;;;;;16.73;5.17;;;;;;;-143.84;87.05;44512.13;5073977;28;21002;-78
2023/05/11 00:04:57;;;;;;;5.80;5.00;;;;;;;-143.84;87.00;44472.16;5073777;28;20844;-77
2023/05/11 00:07:24;;;;;;;5.03;4.37;;;;;;;-143.84;86.88;44502.63;5073511;28;20554;-77
2023/05/11 00:09:52;;;;;;;5.20;4.80;;;;;;;-143.84;86.88;44512.13;5073473;28;20984;-77
2023/05/11 00:12:20;;;;;;;9.47;5.10;;;;;;;-143.84;87.01;44462.63;5073209;28;20494;-77
2023/05/11 00:14:47;;;;;;;10.40;4.77;;;;;;;-143.84;86.93;44439.78;5073348;28;20437;-78
2023/05/11 00:17:14;;;;;;;5.90;4.93;;;;;;;-143.84;87.14;44424.56;5072454;28;20510;-76
2023/05/11 00:19:41;;;;;;;4.97;4.53;;;;;;;-143.84;87.16;44455.03;5071967;28;20441;-77
2023/05/11 00:22:08;;;;;;;6.43;4.80;;;;;;;-143.84;87.30;44401.72;5072172;28;20810;-76
2023/05/11 00:24:36;;;;;;;8.40;5.10;;;;;;;-143.84;86.70;44529.28;5072196;28;20503;-76
2023/05/11 00:27:03;;;;;;;11.50;4.40;;;;;;;-143.84;86.49;44590.19;5072394;28;20481;-76
2023/05/11 00:29:31;;;;;;;8.47;4.33;;;;;;;-143.84;86.05;44668.25;5071980;28;20951;-76
2023/05/11 00:31:58;;;;;;;5.97;4.50;;;;;;;-143.84;86.10;44668.25;5071913;28;20450;-76
2023/05/11 00:34:25;;;;;;;7.83;4.47;;;;;;;-143.84;85.83;44693.00;5072042;28;20487;-76
2023/05/11 00:36:52;;;;;;;7.70;4.60;;;;;;;-143.84;85.82;44761.56;5072529;28;20510;-76
2023/05/11 00:39:19;;;;;;;5.80;4.80;;;;;;;-143.84;85.33;44740.59;5074802;28;20490;-75
2023/05/11 00:41:47;;;;;;;6.03;4.80;;;;;;;-143.84;85.17;44788.22;5086544;28;20457;-71
2023/05/11 00:44:14;;;;;;;6.57;4.50;;;;;;;-143.84;85.12;44778.69;5076366;28;20934;-77
2023/05/11 00:46:43;;;;;;;9.43;4.30;;;;;;;-143.84;85.03;44790.13;5072012;28;20477;-77
2023/05/11 00:49:10;;;;;;;5.30;4.20;;;;;;;-143.84;85.35;44759.66;5072063;28;20445;-76
2023/05/11 00:51:39;;;;;;;6.37;4.50;;;;;;;-143.84;85.03;44824.38;5071488;28;20441;-76
2023/05/11 00:54:13;;;;;;;4.77;4.10;;;;;;;-143.84;84.66;44870.09;5071374;28;20514;-76
2023/05/11 00:56:41;;;;;;;4.20;3.87;;;;;;;-143.84;84.47;44883.41;5071572;28;20437;-76
2023/05/11 00:59:08;;;;;;;6.13;3.93;;;;;;;-143.84;84.25;44923.41;5071348;28;20514;-75
2023/05/11 01:01:35;;;;;;;13.43;4.33;;;;;;;-143.84;84.69;44852.94;5071093;28;20437;-75
2023/05/11 01:04:05;;;;;;;4.20;3.90;;;;;;;-143.84;84.46;44875.78;5071252;28;20942;-76
2023/05/11 01:06:43;;;;;;;4.77;4.07;;;;;;;-143.84;84.17;44932.91;5071503;28;21279;-76
2023/05/11 01:09:20;;;;;;;6.70;4.23;;;;;;;-143.84;83.96;44906.25;5070834;28;20485;-75
2023/05/11 01:11:53;;;;;;;5.23;4.70;;;;;;;-143.84;84.34;44879.59;5071595;28;20506;-76
2023/05/11 01:14:23;;;;;;;6.03;4.10;;;;;;;-143.84;84.77;44852.94;5070924;28;20527;-76
2023/05/11 01:16:57;;;;;;;4.70;4.30;;;;;;;-143.84;84.68;44881.50;5071490;28;20459;-75
2023/05/11 01:19:39;;;;;;;8.53;4.20;;;;;;;-143.84;84.60;44879.59;5071067;28;20870;-75
2023/05/11 01:22:14;;;;;;;4.50;4.10;;;;;;;-143.84;84.77;44851.03;5071318;28;20439;-75
2023/05/11 01:25:03;;;;;;;5.63;5.00;;;;;;;-143.84;85.27;44795.81;5070905;28;20437;-75
2023/05/11 01:27:53;;;;;;;9.77;5.33;;;;;;;-143.84;85.37;44788.22;5070981;28;20525;-76
2023/05/11 01:30:36;;;;;;;6.13;4.50;;;;;;;-143.84;85.22;44765.34;5070784;28;20506;-76
2023/05/11 01:33:08;;;;;;;6.40;4.57;;;;;;;-143.84;85.31;44803.44;5071114;28;20484;-76
2023/05/11 01:35:39;;;;;;;5.23;4.73;;;;;;;-143.84;84.83;44866.28;5070779;28;20433;-75
2023/05/11 01:38:11;;;;;;;5.00;4.50;;;;;;;-143.84;84.93;44841.53;5070351;28;20441;-76
2023/05/11 01:40:41;;;;;;;8.93;5.90;;;;;;;-143.84;85.07;44820.56;5070760;28;20430;-76
2023/05/11 01:43:12;;;;;;;8.50;5.50;;;;;;;-143.84;85.39;44805.34;5071256;28;20824;-76
2023/05/11 01:45:45;;;;;;;6.23;4.80;;;;;;;-143.84;85.34;44830.09;5071023;28;20494;-76
2023/05/11 01:48:16;;;;;;;7.83;5.33;;;;;;;-143.84;85.54;44788.22;5071096;28;20549;-76
2023/05/11 01:50:44;;;;;;;13.93;5.60;;;;;;;-143.84;85.90;44725.38;5071017;28;20938;-76
2023/05/11 01:53:13;;;;;;;5.43;4.93;;;;;;;-143.84;85.91;44736.81;5070659;28;20445;-76
2023/05/11 01:55:43;;;;;;;17.70;5.47;;;;;;;-143.84;85.81;44733.00;5070779;28;20464;-76
2023/05/11 01:58:13;;;;;;;6.67;4.67;;;;;;;-143.84;86.14;44710.16;5071023;28;20536;-77
2023/05/11 02:00:44;;;;;;;4.03;3.80;;;;;;;-143.84;86.13;44693.00;5070194;28;20441;-75
2023/05/11 02:03:12;;;;;;;6.87;5.10;;;;;;;-143.84;85.77;44755.84;5070012;28;20434;-75
2023/05/11 02:05:41;;;;;;;4.90;4.40;;;;;;;-143.84;85.35;44826.28;5069431;28;20966;-76
2023/05/11 02:08:09;;;;;;;7.27;5.50;;;;;;;-143.84;85.23;44818.66;5070226;28;20519;-76
2023/05/11 02:10:39;;;;;;;7.17;3.93;;;;;;;-143.84;85.14;44824.38;5070467;28;20956;-75
2023/05/11 02:13:08;;;;;;;5.63;5.00;;;;;;;-143.84;85.35;44812.97;5070007;28;20461;-75
2023/05/11 02:15:40;;;;;;;8.53;5.60;;;;;;;-143.84;85.41;44765.34;5070125;28;20923;-75
2023/05/11 02:18:12;;;;;;;5.57;4.60;;;;;;;-143.84;85.57;44761.56;5069898;28;20516;-75
2023/05/11 02:20:43;;;;;;;7.80;5.27;;;;;;;-143.84;85.02;44858.66;5070069;28;20441;-75
2023/05/11 02:23:10;;;;;;;5.00;4.50;;;;;;;-143.84;84.82;44885.31;5070049;28;20507;-75
2023/05/11 02:25:39;;;;;;;6.00;5.50;;;;;;;-143.84;84.43;44908.16;5069895;28;20498;-75
2023/05/11 02:28:07;;;;;;;6.00;5.50;;;;;;;-143.84;84.74;44883.41;5069560;28;20472;-75
2023/05/11 02:30:39;;;;;;;15.30;10.47;;;;;;;-143.84;85.00;44830.09;5069655;28;20433;-75
2023/05/11 02:33:09;;;;;;;13.03;10.63;;;;;;;-143.84;85.32;44811.06;5069266;28;20433;-75
2023/05/11 02:35:41;;;;;;;13.03;10.60;;;;;;;-143.84;86.02;44698.72;5069740;28;20445;-75
2023/05/11 02:38:10;;;;;;;13.40;9.20;;;;;;;-143.84;86.54;44616.84;5069212;28;20522;-74
2023/05/11 02:40:42;;;;;;;11.73;9.87;;;;;;;-143.84;86.73;44578.78;5069237;28;20495;-75
2023/05/11 02:43:13;;;;;;;8.47;6.83;;;;;;;-143.84;87.02;44477.88;5071263;28;20462;-77
2023/05/11 02:45:43;;;;;;;11.80;7.47;;;;;;;-143.84;87.17;44441.69;5077864;28;20413;-73
2023/05/11 02:48:21;;;;;;;10.00;9.00;;;;;;;-143.84;86.74;44614.94;5079194;28;20520;-76
2023/05/11 02:50:51;;;;;;;12.77;8.50;;;;;;;-143.84;86.68;44595.91;5069715;28;20445;-75
2023/05/11 02:53:21;;;;;;;9.97;9.07;;;;;;;-143.84;86.91;44500.72;5082941;28;20964;-75
2023/05/11 02:55:50;;;;;;;9.97;7.90;;;;;;;-143.84;87.22;44418.84;5089204;28;20447;-75
2023/05/11 02:58:18;;;;;;;8.37;7.57;;;;;;;-143.84;87.06;44475.97;5089336;28;20440;-75
2023/05/11 03:00:45;;;;;;;10.03;6.77;;;;;;;-143.84;87.23;44449.31;5089767;28;20470;-75
2023/05/11 03:03:14;;;;;;;6.80;6.20;;;;;;;-143.84;87.14;44428.38;5089462;28;20995;-75
2023/05/11 03:05:41;;;;;;;7.10;6.60;;;;;;;-143.84;87.37;44420.75;5089473;28;20480;-75
2023/05/11 03:08:08;;;;;;;9.53;5.80;;;;;;;-143.84;87.60;44316.03;5089006;28;20475;-76
2023/05/11 03:10:36;;;;;;;6.70;6.00;;;;;;;-143.84;87.50;44316.03;5089095;28;20486;-64
2023/05/11 03:13:05;;;;;;;5.80;5.27;;;;;;;-143.84;87.41;44348.41;5088711;28;20436;-64
2023/05/11 03:15:33;;;;;;;10.07;4.50;;;;;;;-143.84;87.42;44331.28;5088949;28;20605;-64
2023/05/11 03:18:01;;;;;;;5.40;4.90;;;;;;;-143.84;87.65;44238.00;5090759;28;20436;-64
2023/05/11 03:20:31;;;;;;;5.50;5.00;;;;;;;-143.84;87.88;44218.94;5092814;28;20949;-64
2023/05/11 03:23:00;;;;;;;10.10;4.43;;;;;;;-143.84;87.88;44188.50;5093136;28;20876;-64
2023/05/11 03:25:28;;;;;;;5.50;4.77;;;;;;;-143.84;87.41;44306.53;5092990;28;20436;-63
2023/05/11 03:27:57;;;;;;;7.50;4.97;;;;;;;-143.84;87.35;44314.13;5092921;28;20485;-63
2023/05/11 03:30:25;;;;;;;7.63;5.60;;;;;;;-143.84;87.53;44262.75;5092967;28;20444;-65
2023/05/11 03:32:53;;;;;;;7.43;4.77;;;;;;;-143.84;86.59;44529.28;5092864;28;20478;-65
2023/05/11 03:35:20;;;;;;;7.70;5.00;;;;;;;-143.84;86.96;44340.78;5092741;28;20497;-64
2023/05/11 03:37:50;;;;;;;5.50;5.00;;;;;;;-143.84;86.53;44477.88;5092509;28;20505;-64
2023/05/11 03:40:21;;;;;;;5.80;5.20;;;;;;;-143.84;85.17;44694.91;5092428;28;21123;-64
2023/05/11 03:42:49;;;;;;;4.87;3.60;;;;;;;-143.84;82.43;44993.84;5092391;28;20432;-64
2023/05/11 03:45:19;;;;;;;4.77;3.80;;;;;;;-143.84;81.02;45039.53;5092333;28;20436;-65
2023/05/11 03:47:49;;;;;;;17.47;3.47;;;;;;;-143.84;82.05;45020.50;5092240;28;20444;-63
2023/05/11 03:50:17;;;;;;;11.87;4.90;;;;;;;-143.84;80.87;45014.78;5092447;28;20444;-64
2023/05/11 03:52:44;;;;;;;4.33;4.03;;;;;;;-143.84;80.64;45064.31;5092286;28;20443;-64
2023/05/11 03:55:13;;;;;;;13.20;4.10;;;;;;;-143.84;81.01;45054.78;5092123;28;20448;-64
2023/05/11 03:57:41;;;;;;;4.10;3.80;;;;;;;-143.84;81.09;45079.53;5092565;28;20439;-64
2023/05/11 04:00:13;;;;;;;11.17;3.97;;;;;;;-143.84;80.82;45037.66;5092659;28;21253;-64
2023/05/11 04:02:40;;;;;;;5.37;3.27;;;;;;;-143.84;80.87;45047.16;5082822;28;20434;-64
2023/05/11 04:05:08;;;;;;;4.70;3.80;;;;;;;-143.84;81.24;45045.25;5071502;28;20998;-64
2023/05/11 04:07:37;;;;;;;4.00;3.30;;;;;;;-143.84;81.63;45037.66;5071490;28;20449;-64
2023/05/11 04:10:05;;;;;;;7.90;3.77;;;;;;;-143.84;81.96;45012.88;5071593;28;20530;-71
2023/05/11 04:12:34;;;;;;;4.13;3.73;;;;;;;-143.84;82.28;44988.13;5071541;28;20463;-71
2023/05/11 04:15:01;;;;;;;7.80;4.83;;;;;;;-143.84;83.22;44917.69;5071601;28;20437;-71
2023/05/11 04:17:28;;;;;;;4.20;3.90;;;;;;;-143.84;83.37;44913.88;5086381;28;20448;-71
2023/05/11 04:19:55;;;;;;;4.40;3.17;;;;;;;-143.84;82.27;45001.47;5089303;28;20436;-71
2023/05/11 04:22:22;;;;;;;9.80;3.50;;;;;;;-143.84;80.44;45031.94;5091401;28;20797;-71
2023/05/11 04:24:49;;;;;;;7.60;3.63;;;;;;;-143.84;79.99;45030.03;5091498;28;20974;-71
2023/05/11 04:27:16;;;;;;;4.97;3.30;;;;;;;-143.84;79.96;45054.78;5091724;28;20444;-71
2023/05/11 04:29:45;;;;;;;8.13;3.40;;;;;;;-143.84;79.62;45058.59;5091280;28;20529;-70
2023/05/11 04:32:12;;;;;;;5.93;3.50;;;;;;;-143.84;80.23;45050.97;5091706;28;20448;-70
2023/05/11 04:34:40;;;;;;;8.10;3.27;;;;;;;-143.84;80.46;45014.78;5091400;28;20436;-71
2023/05/11 04:37:07;;;;;;;4.97;3.03;;;;;;;-143.84;78.54;45081.44;5091480;28;20938;-71
2023/05/11 04:39:34;;;;;;;3.33;2.33;;;;;;;-143.84;73.56;45096.66;5091479;28;20434;-69
2023/05/11 04:42:01;;;;;;;5.37;2.30;;;;;;;-143.84;70.48;45159.50;5091766;28;20456;-68
2023/05/11 04:44:29;;;;;;;5.97;2.40;;;;;;;-143.84;67.26;45098.56;5091332;28;20434;-68
2023/05/11 04:46:57;;;;;;;3.17;2.17;;;;;;;-143.84;62.94;45102.38;5091395;28;20494;-68
2023/05/11 04:49:24;;;;;;;2.77;2.37;;;;;;;-143.84;61.36;45110.00;5091104;28;21071;-69
2023/05/11 04:51:51;;;;;;;2.47;2.27;;;;;;;-143.84;60.35;45129.03;5090775;28;20964;-69
2023/05/11 04:54:18;;;;;;;2.30;2.10;;;;;;;-143.84;60.38;45123.34;5090663;28;20518;-69
2023/05/11 04:56:45;;;;;;;5.53;2.33;;;;;;;-143.84;59.92;45140.47;5090827;28;20426;-69
2023/05/11 04:59:13;;;;;;;5.43;2.13;;;;;;;-143.84;56.37;45123.34;5090582;28;20500;-69
2023/05/11 05:01:40;;;;;;;5.93;2.07;;;;;;;-143.84;55.82;45092.88;5090430;28;20858;-68
2023/05/11 05:04:08;;;;;;;3.37;1.90;;;;;;;-143.84;55.23;45123.34;5090314;28;20441;-68
2023/05/11 05:06:37;;;;;;;3.80;1.80;;;;;;;-143.84;53.88;45102.38;5088073;28;20533;-71
2023/05/11 05:09:04;;;;;;;2.17;1.73;;;;;;;-143.84;52.69;45102.38;5090439;28;21113;-68
2023/05/11 05:11:31;;;;;;;5.50;1.87;;;;;;;-143.84;53.08;45100.47;5090761;28;21320;-68
2023/05/11 05:13:58;;;;;;;2.53;2.00;;;;;;;-143.84;52.77;45108.09;5091114;28;21187;-70
2023/05/11 05:16:25;;;;;;;3.07;1.63;;;;;;;-143.84;53.93;45125.22;5090977;28;20521;-68
2023/05/11 05:18:52;;;;;;;3.80;1.90;;;;;;;-143.84;55.23;45094.78;5090783;28;20481;-70
2023/05/11 05:21:21;;;;;;;2.87;2.07;;;;;;;-143.84;54.03;45096.66;5090710;28;20517;-68
2023/05/11 05:23:48;;;;;;;2.70;2.13;;;;;;;-143.84;54.21;45110.00;5090854;28;20445;-68
2023/05/11 05:26:15;;;;;;;5.37;2.20;;;;;;;-143.84;51.67;45110.00;5090700;28;20493;-70
2023/05/11 05:28:42;;;;;;;3.37;1.80;;;;;;;-143.84;50.19;45119.53;5090538;28;20480;-70
2023/05/11 05:31:09;;;;;;;5.00;1.83;;;;;;;-143.84;49.25;45111.91;5090466;28;20440;-70
2023/05/11 05:33:36;;;;;;;2.20;2.10;;;;;;;-143.84;49.42;45096.66;5090277;28;20444;-70
2023/05/11 05:36:04;;;;;;;2.30;2.10;;;;;;;-143.84;50.73;45132.84;5089787;28;20444;-68
2023/05/11 05:38:32;;;;;;;2.00;1.90;;;;;;;-143.84;52.08;45104.28;5090321;28;20444;-69
2023/05/11 05:41:00;;;;;;;4.13;2.47;;;;;;;-143.84;53.53;45102.38;5088676;28;20509;-71
2023/05/11 05:43:27;;;;;;;2.60;1.80;;;;;;;-143.84;49.55;45098.56;5090127;28;20437;-71
2023/05/11 05:45:54;;;;;;;9.23;1.90;;;;;;;-143.84;48.88;45115.72;5090135;28;20501;-71
2023/05/11 05:48:21;;;;;;;3.30;1.70;;;;;;;-143.84;48.24;45098.56;5090203;28;20444;-68
2023/05/11 05:50:48;;;;;;;2.33;2.03;;;;;;;-143.84;49.00;45087.16;5089962;28;20445;-69
2023/05/11 05:53:15;;;;;;;2.50;2.30;;;;;;;-143.84;49.53;45102.38;5090133;28;20441;-68
2023/05/11 05:55:44;;;;;;;9.40;2.90;;;;;;;-143.84;51.84;45096.66;5089261;28;20506;-68
2023/05/11 05:58:11;;;;;;;2.40;2.03;;;;;;;-143.84;49.91;45113.81;5088743;28;20477;-70
2023/05/11 06:00:38;;;;;;;3.83;1.90;;;;;;;-143.84;49.08;45108.09;5088661;28;20810;-68
2023/05/11 06:03:05;;;;;;;2.90;2.27;;;;;;;-143.84;48.34;45106.19;5088832;28;20501;-70
2023/05/11 06:05:32;;;;;;;4.13;2.77;;;;;;;-143.84;48.40;45104.28;5088523;28;20517;-70
2023/05/11 06:07:59;;;;;;;3.63;2.00;;;;;;;-143.84;47.59;45125.22;5088712;28;20517;-70
2023/05/11 06:10:26;;;;;;;5.80;2.27;;;;;;;-143.84;46.80;45111.91;5088510;28;20484;-70
2023/05/11 06:12:55;;;;;;;1.77;1.67;;;;;;;-143.84;46.10;45115.72;5089610;28;20505;-70
2023/05/11 06:15:22;;;;;;;4.50;3.00;;;;;;;-143.84;46.32;45125.22;5089715;28;20937;-70
2023/05/11 06:17:49;;;;;;;2.27;2.07;;;;;;;-143.84;45.82;45092.88;5089608;28;20944;-70
2023/05/11 06:20:16;;;;;;;3.80;2.40;;;;;;;-143.84;47.10;45121.44;5089652;28;20501;-70
2023/05/11 06:22:43;;;;;;;2.90;2.30;;;;;;;-143.84;46.78;45083.34;5089854;28;20492;-70
2023/05/11 06:25:10;;;;;;;5.37;2.40;;;;;;;-143.84;47.17;45100.47;5089497;28;20553;-70
2023/05/11 06:27:38;;;;;;;2.63;2.43;;;;;;;-143.84;48.00;45108.09;5089564;28;20467;-68
2023/05/11 06:30:08;;;;;;;4.77;2.70;;;;;;;-143.84;48.53;45100.47;5089165;28;20476;-67
2023/05/11 06:32:35;;;;;;;3.20;2.90;;;;;;;-143.84;48.83;45090.97;5089176;28;20444;-70
2023/05/11 06:35:02;;;;;;;3.63;3.43;;;;;;;-143.84;49.17;45119.53;5089400;28;20875;-70
2023/05/11 06:37:30;;;;;;;4.63;3.87;;;;;;;-143.84;49.62;45108.09;5089445;28;20521;-70
2023/05/11 06:39:58;;;;;;;5.90;2.57;;;;;;;-143.84;51.25;45110.00;5089103;28;20449;-68
2023/05/11 06:42:25;;;;;;;4.97;3.00;;;;;;;-143.84;52.53;45089.06;5089245;28;20436;-70
2023/05/11 06:44:52;;;;;;;3.80;2.70;;;;;;;-143.84;54.21;45113.81;5089300;28;20440;-70
2023/05/11 06:47:20;;;;;;;3.50;2.83;;;;;;;-143.84;56.44;45111.91;5089186;28;20452;-68
2023/05/11 06:49:47;;;;;;;3.00;2.77;;;;;;;-143.84;54.84;45136.66;5089029;28;20888;-68
2023/05/11 06:52:15;;;;;;;3.53;2.80;;;;;;;-143.84;54.73;45113.81;5088879;28;20458;-68
2023/05/11 06:54:42;;;;;;;14.03;3.27;;;;;;;-143.84;57.44;45102.38;5089356;28;20922;-68
2023/05/11 06:57:11;;;;;;;4.20;2.60;;;;;;;-143.84;53.09;45119.53;5088806;28;20452;-68
2023/05/11 06:59:38;;;;;;;5.33;3.30;;;;;;;-143.84;53.02;45106.19;5089147;28;20867;-68
2023/05/11 07:02:06;;;;;;;9.23;3.30;;;;;;;-143.84;52.94;45085.25;5088955;28;20888;-68
2023/05/11 07:04:34;;;;;;;5.67;3.20;;;;;;;-143.84;51.14;45092.88;5089025;28;20509;-68
2023/05/11 07:07:02;;;;;;;3.97;3.20;;;;;;;-143.84;51.62;45102.38;5088756;28;20553;-70
2023/05/11 07:09:29;;;;;;;4.23;2.63;;;;;;;-143.84;49.93;45117.63;5089051;28;20475;-68
2023/05/11 07:11:56;;;;;;;13.47;2.77;;;;;;;-143.84;50.20;45113.81;5089519;28;20526;-68
2023/05/11 07:14:23;;;;;;;13.53;3.00;;;;;;;-143.84;51.83;45123.34;5089233;28;20493;-68
2023/05/11 07:16:51;;;;;;;9.03;2.70;;;;;;;-143.84;51.44;45119.53;5088822;28;20506;-68
2023/05/11 07:19:18;;;;;;;3.40;2.53;;;;;;;-143.84;51.16;45129.03;5088581;28;20444;-70
2023/05/11 07:21:47;;;;;;;8.60;2.63;;;;;;;-143.84;50.49;45113.81;5088920;28;20513;-70
2023/05/11 07:24:14;;;;;;;2.93;2.70;;;;;;;-143.84;51.01;45079.53;5088654;28;20440;-70
2023/05/11 07:26:41;;;;;;;4.83;3.20;;;;;;;-143.84;50.90;45090.97;5088748;28;20440;-70
2023/05/11 07:29:08;;;;;;;3.60;2.33;;;;;;;-143.84;49.30;45100.47;5088541;28;20444;-70
2023/05/11 07:31:36;;;;;;;3.17;2.97;;;;;;;-143.84;48.29;45089.06;5088456;28;20451;-70
2023/05/11 07:34:03;;;;;;;4.20;3.63;;;;;;;-143.84;49.01;45096.66;5088634;28;20466;-70
2023/05/11 07:36:30;;;;;;;4.10;3.07;;;;;;;-143.84;49.39;45098.56;5088690;28;20440;-70
2023/05/11 07:39:00;;;;;;;5.20;2.93;;;;;;;-143.84;49.35;45087.16;5088483;28;21007;-70
2023/05/11 07:41:27;;;;;;;5.40;3.10;;;;;;;-143.84;49.86;45085.25;5088577;28;20977;-70
2023/05/11 07:43:54;;;;;;;4.40;2.73;;;;;;;-143.84;49.93;45098.56;5088470;28;20437;-70
2023/05/11 07:46:21;;;;;;;5.77;3.27;;;;;;;-143.84;49.26;45087.16;5088401;28;20521;-70
2023/05/11 07:48:48;;;;;;;6.60;3.10;;;;;;;-143.84;48.96;45108.09;5088392;28;20437;-70
2023/05/11 07:51:16;;;;;;;3.00;2.80;;;;;;;-143.84;50.53;45117.63;5088360;28;20472;-70
2023/05/11 07:53:43;;;;;;;3.17;2.93;;;;;;;-143.84;50.23;45094.78;5088854;28;20444;-70
2023/05/11 07:56:11;;;;;;;4.00;2.80;;;;;;;-143.84;50.31;45115.72;5088583;28;20436;-70
2023/05/11 07:58:39;;;;;;;3.00;2.77;;;;;;;-143.84;49.31;45094.78;5088318;28;21043;-69
2023/05/11 08:01:06;;;;;;;4.93;2.67;;;;;;;-143.84;48.91;45106.19;5088431;28;20942;-70
2023/05/11 08:03:33;;;;;;;6.60;3.07;;;;;;;-143.84;48.73;45106.19;5089502;28;20525;-70
2023/05/11 08:06:00;;;;;;;4.80;3.00;;;;;;;-143.84;50.09;45121.44;5091927;28;20488;-69
2023/05/11 08:08:28;;;;;;;8.37;3.27;;;;;;;-143.84;51.37;45106.19;5091900;28;20440;-70
2023/05/11 08:10:56;;;;;;;5.67;3.40;;;;;;;-143.84;51.79;45132.84;5092062;28;20537;-70
2023/05/11 08:13:24;;;;;;;6.20;3.33;;;;;;;-143.84;51.05;45092.88;5091943;28;20466;-70
2023/05/11 08:15:51;;;;;;;3.30;2.97;;;;;;;-143.84;51.70;45094.78;5091698;28;20440;-70
2023/05/11 08:18:18;;;;;;;3.83;2.40;;;;;;;-143.84;51.89;45102.38;5081143;28;20502;-70
2023/05/11 08:20:45;;;;;;;8.00;2.80;;;;;;;-143.84;49.71;45104.28;5071501;28;20864;-70
2023/05/11 08:23:16;;;;;;;2.93;2.73;;;;;;;-143.84;48.77;45098.56;5071460;28;20437;-70
2023/05/11 08:25:50;;;;;;;2.47;2.37;;;;;;;-143.84;49.00;45075.72;5071343;28;21004;-70
2023/05/11 08:28:17;;;;;;;3.33;2.77;;;;;;;-143.84;47.97;45106.19;5071479;28;20452;-70
2023/05/11 08:30:46;;;;;;;7.20;3.07;;;;;;;-143.84;47.65;45119.53;5071269;28;20489;-70
2023/05/11 08:33:13;;;;;;;5.00;2.90;;;;;;;-143.84;48.37;45058.59;5071639;28;20445;-70
2023/05/11 08:35:40;;;;;;;11.73;3.30;;;;;;;-143.84;49.40;45098.56;5071492;28;20803;-70
2023/05/11 08:38:07;;;;;;;4.47;3.00;;;;;;;-143.84;49.79;45094.78;5071194;28;20442;-70
2023/05/11 08:40:35;;;;;;;5.77;3.43;;;;;;;-143.84;53.51;45102.38;5071443;28;20467;-70
2023/05/11 08:43:06;;;;;;;3.60;3.27;;;;;;;-143.84;52.10;45102.38;5071104;28;20815;-70
2023/05/11 08:45:37;;;;;;;5.60;3.03;;;;;;;-143.84;50.98;45087.16;5070979;28;20441;-70
2023/05/11 08:48:06;;;;;;;13.23;3.53;;;;;;;-143.84;49.27;45092.88;5071162;28;20429;-71
2023/05/11 08:50:33;;;;;;;7.13;3.70;;;;;;;-143.84;48.77;45089.06;5070916;28;20477;-70
2023/05/11 08:53:01;;;;;;;8.13;3.30;;;;;;;-143.84;49.14;45102.38;5076586;28;20432;-70
2023/05/11 08:55:28;;;;;;;4.33;2.47;;;;;;;-143.84;49.88;45090.97;5091216;28;20472;-71
2023/05/11 08:57:57;;;;;;;4.13;2.60;;;;;;;-143.84;48.87;45102.38;5090913;28;20440;-70
2023/05/11 09:00:25;;;;;;;3.70;3.40;;;;;;;-143.84;48.81;45062.41;5091337;28;20467;-70
2023/05/11 09:02:53;;;;;;;3.13;2.93;;;;;;;-143.84;48.58;45096.66;5091607;28;20433;-70
2023/05/11 09:05:22;;;;;;;3.30;3.00;;;;;;;-143.84;49.20;45079.53;5091055;28;21418;-70
2023/05/11 09:07:52;;;;;;;3.70;3.23;;;;;;;-143.84;47.79;45085.25;5091132;28;20440;-71
2023/05/11 09:10:19;;;;;;;3.00;2.80;;;;;;;-143.84;48.43;45087.16;5090854;28;20480;-70
2023/05/11 09:12:47;;;;;;;5.00;2.47;;;;;;;-143.84;48.23;45092.88;5090724;28;20513;-71
2023/05/11 09:15:14;;;;;;;3.00;2.47;;;;;;;-143.84;47.65;45071.91;5090612;28;20850;-71
2023/05/11 09:17:41;;;;;;;3.10;2.70;;;;;;;-143.84;47.01;45077.63;5090640;28;20449;-70
2023/05/11 09:20:09;;;;;;;6.17;2.63;;;;;;;-143.84;47.30;45062.41;5090867;28;20432;-70
2023/05/11 09:22:44;;;;;;;8.90;3.07;;;;;;;-143.84;47.36;45083.34;5090776;28;20436;-70
2023/05/11 09:25:12;;;;;;;6.33;3.30;;;;;;;-143.84;47.25;45075.72;5090655;28;20505;-70
2023/05/11 09:27:43;;;;;;;10.23;3.00;;;;;;;-143.84;47.27;45083.34;5090164;28;20432;-70
2023/05/11 09:30:12;;;;;;;4.20;3.20;;;;;;;-143.84;48.15;45068.13;5090617;28;21243;-70
2023/05/11 09:32:50;;;;;;;4.30;2.60;;;;;;;-143.84;47.30;45083.34;5090310;28;20999;-71
2023/05/11 09:35:22;;;;;;;6.47;3.00;;;;;;;-143.84;46.97;45094.78;5090409;28;20436;-71
2023/05/11 09:38:07;;;;;;;7.60;3.20;;;;;;;-143.84;47.74;45087.16;5090050;28;20432;-71
2023/05/11 09:40:37;;;;;;;3.40;3.10;;;;;;;-143.84;48.00;45090.97;5090294;28;21384;-71
2023/05/11 09:43:16;;;;;;;5.50;2.97;;;;;;;-143.84;47.47;45100.47;5090063;28;20441;-71
2023/05/11 09:45:45;;;;;;;3.83;2.90;;;;;;;-143.84;47.83;45075.72;5090148;28;20447;-71
2023/05/11 09:48:25;;;;;;;3.97;2.80;;;;;;;-143.84;48.04;45092.88;5090554;28;20788;-70
2023/05/11 09:50:59;;;;;;;4.77;2.80;;;;;;;-143.84;47.83;45092.88;5090061;28;21005;-70
2023/05/11 09:53:37;;;;;;;6.03;3.60;;;;;;;-143.84;48.11;45094.78;5090376;28;20433;-70
2023/05/11 09:56:05;;;;;;;10.90;2.93;;;;;;;-143.84;47.80;45081.44;5090525;28;20539;-70
2023/05/11 09:58:50;;;;;;;2.70;2.50;;;;;;;-143.84;48.80;45062.41;5090382;28;21304;-70
2023/05/11 10:01:19;;;;;;;4.13;3.07;;;;;;;-143.84;47.86;45060.50;5089990;28;20515;-70
2023/05/11 10:03:52;;;;;;;4.00;3.00;;;;;;;-143.84;47.03;45104.28;5090111;28;20435;-70
2023/05/11 10:06:20;;;;;;;3.53;3.10;;;;;;;-143.84;47.32;45081.44;5089831;28;20479;-70
2023/05/11 10:08:49;;;;;;;4.40;2.93;;;;;;;-143.84;47.46;45083.34;5089762;28;20648;-70
2023/05/11 10:11:16;;;;;;;8.60;3.30;;;;;;;-143.84;47.13;45087.16;5089697;28;20483;-70
2023/05/11 10:13:45;;;;;;;6.33;2.67;;;;;;;-143.84;48.56;45102.38;5089902;28;20440;-70
2023/05/11 10:16:15;;;;;;;3.70;3.40;;;;;;;-143.84;47.62;45090.97;5089842;28;20951;-69
2023/05/11 10:18:43;;;;;;;9.90;3.57;;;;;;;-143.84;47.82;45092.88;5089695;28;20474;-70
2023/05/11 10:21:11;;;;;;;11.20;2.93;;;;;;;-143.84;46.91;45081.44;5089674;28;20476;-69
2023/05/11 10:23:39;;;;;;;3.67;3.10;;;;;;;-143.84;46.46;45089.06;5089731;28;20436;-69
2023/05/11 10:26:09;;;;;;;5.33;3.20;;;;;;;-143.84;47.17;45071.91;5088742;28;20494;-69
2023/05/11 10:28:36;;;;;;;4.83;2.43;;;;;;;-143.84;46.90;45106.19;5089659;28;20453;-69
2023/05/11 10:31:04;;;;;;;6.70;2.73;;;;;;;-143.84;47.36;45102.38;5089455;28;21085;-69
2023/05/11 10:33:32;;;;;;;6.00;2.93;;;;;;;-143.84;48.72;45073.81;5089591;28;20441;-70
2023/05/11 10:36:00;;;;;;;2.87;2.67;;;;;;;-143.84;48.57;45110.00;5089385;28;20437;-70
2023/05/11 10:38:27;;;;;;;3.17;2.73;;;;;;;-143.84;48.34;45108.09;5089233;28;20491;-69
2023/05/11 10:41:04;;;;;;;3.80;3.43;;;;;;;-143.84;48.45;45106.19;5089295;28;20489;-70
2023/05/11 10:43:55;;;;;;;4.20;3.47;;;;;;;-143.84;49.23;45089.06;5089345;28;20471;-70
2023/05/11 10:46:38;;;;;;;3.00;2.63;;;;;;;-143.84;49.38;45077.63;5089286;28;20441;-69
2023/05/11 10:49:38;;;;;;;9.10;3.10;;;;;;;-143.84;51.21;45104.28;5089294;28;20436;-69
2023/05/11 10:52:33;;;;;;;3.63;3.00;;;;;;;-143.84;52.10;45090.97;5089344;28;20480;-69
2023/05/11 10:55:13;;;;;;;9.77;3.00;;;;;;;-143.84;52.53;45096.66;5087000;28;20444;-69
2023/05/11 10:58:03;;;;;;;3.67;3.13;;;;;;;-143.84;51.43;45094.78;5089355;28;20512;-69
2023/05/11 11:01:16;;;;;;;3.27;2.97;;;;;;;-143.84;52.53;45113.81;5089455;28;20497;-70
2023/05/11 11:03:56;;;;;;;3.07;2.87;;;;;;;-143.84;53.04;45106.19;5089442;28;20467;-69
2023/05/11 11:06:24;;;;;;;5.30;2.97;;;;;;;-143.84;52.95;45108.09;5089141;28;20483;-69
2023/05/11 11:09:00;;;;;;;2.97;2.43;;;;;;;-143.84;54.70;45100.47;5089372;28;20513;-69
2023/05/11 11:11:35;;;;;;;5.77;3.27;;;;;;;-143.84;54.56;45083.34;5089565;28;20463;-69
2023/05/11 11:14:04;;;;;;;9.27;3.50;;;;;;;-143.84;54.01;45098.56;5089381;28;20994;-69
2023/05/11 11:16:33;;;;;;;11.40;3.43;;;;;;;-143.84;54.17;45096.66;5089146;28;20439;-69
2023/05/11 11:19:40;;;;;;;13.37;3.63;;;;;;;-143.84;54.07;45111.91;5089632;28;20468;-69
2023/05/11 11:22:43;;;;;;;12.57;2.73;;;;;;;-143.84;55.32;45119.53;5089161;28;20447;-70
2023/05/11 11:25:11;;;;;;;4.27;3.50;;;;;;;-143.84;52.48;45062.41;5089312;28;20428;-70
2023/05/11 11:27:58;;;;;;;3.80;2.80;;;;;;;-143.84;51.30;45094.78;5087774;28;20529;-70